Time;durP1;ratioP1;P1;durP2;ratioP2;P2;SDS_P1;SDS_P2;PMS_P1;PMS_P2;Temp;Humidity;BMP_temperature;BMP_pressure;BME280_temperature;BME280_humidity;BME280_pressure;Samples;Min_cycle;Max_cycle;Signal;HPM_P1;HPM_P2
2022/09/07 00:00:12;;;;;;;;;;;20.20;99.90;;;;;;4966951;28;25070;-63
2022/09/07 00:02:40;;;;;;;;;;;20.20;99.90;;;;;;4974627;28;21950;-64
2022/09/07 00:05:09;;;;;;;;;;;20.30;99.90;;;;;;4968195;28;20202;-63
2022/09/07 00:07:37;;;;;;;;;;;20.40;99.90;;;;;;4968212;28;20867;-63
2022/09/07 00:10:05;;;;;;;;;;;20.20;99.90;;;;;;4968945;28;20335;-64
2022/09/07 00:12:33;;;;;;;;;;;20.30;99.90;;;;;;4966520;28;25142;-63
2022/09/07 00:15:03;;;;;;;;;;;20.50;99.90;;;;;;4969374;28;20094;-64
2022/09/07 00:17:30;;;;;;;;;;;20.60;99.90;;;;;;4970686;28;20200;-65
2022/09/07 00:19:58;;;;;;;;;;;20.50;99.90;;;;;;4965436;28;20243;-64
2022/09/07 00:22:27;;;;;;;;;;;20.60;99.90;;;;;;4969321;28;20547;-65
2022/09/07 00:24:55;;;;;;;;;;;20.70;99.90;;;;;;4968109;28;20081;-66
2022/09/07 00:27:23;;;;;;;;;;;20.90;99.90;;;;;;4967260;28;20211;-65
2022/09/07 00:29:50;;;;;;;;;;;21.00;99.90;;;;;;4967184;28;20742;-65
2022/09/07 00:32:18;;;;;;;;;;;21.00;99.90;;;;;;4965545;28;20196;-63
2022/09/07 00:34:46;;;;;;;;;;;21.00;99.90;;;;;;4969088;28;20087;-64
2022/09/07 00:37:14;;;;;;;;;;;20.90;99.90;;;;;;4969398;28;20071;-63
2022/09/07 00:39:43;;;;;;;;;;;20.90;99.90;;;;;;4967484;28;20274;-63
2022/09/07 00:42:11;;;;;;;;;;;20.90;99.90;;;;;;4966624;28;20262;-65
2022/09/07 00:44:58;;;;;;;;;;;21.00;99.90;;;;;;4965923;28;20276;-64
2022/09/07 00:47:29;;;;;;;;;;;21.00;99.90;;;;;;4965368;28;20261;-63
2022/09/07 00:49:58;;;;;;;;;;;20.90;99.90;;;;;;4965879;28;20686;-63
2022/09/07 00:52:26;;;;;;;;;;;20.80;99.90;;;;;;4967556;28;21445;-63
2022/09/07 00:54:58;;;;;;;;;;;20.70;99.90;;;;;;4974158;28;20246;-63
2022/09/07 00:57:26;;;;;;;;;;;20.50;99.90;;;;;;4966673;28;21739;-64
2022/09/07 00:59:56;;;;;;;;;;;20.20;99.90;;;;;;4966810;28;20244;-63
2022/09/07 01:02:24;;;;;;;;;;;20.00;99.90;;;;;;4973675;28;20740;-63
2022/09/07 01:04:56;;;;;;;;;;;19.90;99.90;;;;;;4967363;28;20246;-63
2022/09/07 01:07:24;;;;;;;;;;;19.80;99.90;;;;;;4965899;28;20255;-63
2022/09/07 01:09:52;;;;;;;;;;;19.70;99.90;;;;;;4965620;28;20311;-63
2022/09/07 01:12:21;;;;;;;;;;;19.60;99.90;;;;;;4966315;28;20368;-63
2022/09/07 01:14:50;;;;;;;;;;;19.70;99.90;;;;;;4966397;28;20474;-63
2022/09/07 01:17:20;;;;;;;;;;;19.70;99.90;;;;;;4966963;28;20191;-63
2022/09/07 01:20:05;;;;;;;;;;;19.50;99.90;;;;;;4967175;28;20834;-62
2022/09/07 01:22:42;;;;;;;;;;;19.30;99.90;;;;;;4967310;28;20425;-63
2022/09/07 01:25:12;;;;;;;;;;;19.00;99.90;;;;;;4966662;28;20491;-63
2022/09/07 01:27:53;;;;;;;;;;;18.70;99.90;;;;;;4967642;28;20817;-64
2022/09/07 01:30:22;;;;;;;;;;;18.90;99.90;;;;;;4966486;28;20191;-64
2022/09/07 01:32:57;;;;;;;;;;;18.80;99.90;;;;;;4964598;28;20800;-63
2022/09/07 01:35:29;;;;;;;;;;;18.50;99.90;;;;;;4964966;28;20045;-64
2022/09/07 01:38:03;;;;;;;;;;;18.20;99.90;;;;;;4968542;28;20481;-64
2022/09/07 01:40:34;;;;;;;;;;;18.00;99.90;;;;;;4968159;28;25148;-64
2022/09/07 01:43:06;;;;;;;;;;;17.90;99.90;;;;;;4965793;28;20128;-64
2022/09/07 01:45:35;;;;;;;;;;;17.90;99.90;;;;;;4967538;28;20709;-64
2022/09/07 01:48:05;;;;;;;;;;;18.00;99.90;;;;;;4963198;28;20076;-65
2022/09/07 01:50:36;;;;;;;;;;;18.10;99.90;;;;;;4966088;28;20181;-64
2022/09/07 01:53:06;;;;;;;;;;;18.20;99.90;;;;;;4969481;28;20695;-65
2022/09/07 01:55:36;;;;;;;;;;;18.40;99.90;;;;;;4967078;28;20651;-65
2022/09/07 01:58:10;;;;;;;;;;;18.50;99.90;;;;;;4964382;28;20945;-64
2022/09/07 02:00:39;;;;;;;;;;;18.60;99.90;;;;;;4967366;28;20276;-64
2022/09/07 02:03:12;;;;;;;;;;;18.80;99.90;;;;;;4973841;28;20795;-64
2022/09/07 02:05:43;;;;;;;;;;;19.20;99.90;;;;;;4968178;28;21053;-63
2022/09/07 02:08:13;;;;;;;;;;;19.40;99.90;;;;;;4966377;28;20178;-63
2022/09/07 02:10:44;;;;;;;;;;;19.40;99.90;;;;;;4966419;28;21340;-62
2022/09/07 02:13:15;;;;;;;;;;;19.70;99.90;;;;;;4966574;28;21157;-63
2022/09/07 02:15:44;;;;;;;;;;;19.40;99.90;;;;;;4966507;28;20683;-63
2022/09/07 02:18:13;;;;;;;;;;;19.40;99.90;;;;;;4964673;28;25084;-63
2022/09/07 02:20:43;;;;;;;;;;;19.70;99.90;;;;;;4962799;28;20089;-63
2022/09/07 02:23:14;;;;;;;;;;;19.70;99.90;;;;;;4963870;28;20346;-63
2022/09/07 02:25:43;;;;;;;;;;;19.60;99.90;;;;;;4966169;28;20412;-62
2022/09/07 02:28:13;;;;;;;;;;;19.20;99.90;;;;;;4964928;28;20102;-63
2022/09/07 02:30:42;;;;;;;;;;;18.90;99.90;;;;;;4963544;28;20676;-63
2022/09/07 02:33:10;;;;;;;;;;;18.60;99.90;;;;;;4964524;28;25153;-63
2022/09/07 02:35:38;;;;;;;;;;;18.40;99.90;;;;;;4960055;28;20484;-63
2022/09/07 02:38:06;;;;;;;;;;;18.30;99.90;;;;;;4962665;28;20966;-63
2022/09/07 02:40:34;;;;;;;;;;;18.70;99.90;;;;;;4964658;28;25082;-63
2022/09/07 02:43:03;;;;;;;;;;;19.20;99.90;;;;;;4965131;28;20087;-63
2022/09/07 02:45:37;;;;;;;;;;;19.50;99.90;;;;;;4966317;28;21347;-63
2022/09/07 02:48:13;;;;;;;;;;;19.70;99.90;;;;;;4965173;28;21309;-63
2022/09/07 02:50:52;;;;;;;;;;;20.00;99.90;;;;;;4963742;28;20313;-63
2022/09/07 02:53:33;;;;;;;;;;;19.90;99.90;;;;;;4964663;28;20202;-63
2022/09/07 02:56:06;;;;;;;;;;;20.10;99.90;;;;;;4961017;28;20622;-63
2022/09/07 02:58:39;;;;;;;;;;;20.40;99.90;;;;;;4966885;28;20736;-63
2022/09/07 03:01:09;;;;;;;;;;;20.30;99.90;;;;;;4966519;28;20209;-63
2022/09/07 03:03:42;;;;;;;;;;;20.30;99.90;;;;;;4965976;28;20196;-63
2022/09/07 03:06:13;;;;;;;;;;;20.30;99.90;;;;;;4966029;28;20217;-64
2022/09/07 03:08:44;;;;;;;;;;;20.30;99.90;;;;;;4982860;23;20485;-64
2022/09/07 03:11:12;;;;;;;;;;;20.10;99.90;;;;;;5004060;28;20213;-63
2022/09/07 03:13:40;;;;;;;;;;;20.00;99.90;;;;;;4991703;28;20314;-63
2022/09/07 03:16:11;;;;;;;;;;;19.80;99.90;;;;;;5001309;28;20710;-63
2022/09/07 03:18:41;;;;;;;;;;;19.80;99.90;;;;;;4992322;28;20850;-64
2022/09/07 03:21:09;;;;;;;;;;;19.90;99.90;;;;;;4989373;28;25167;-64
2022/09/07 03:23:37;;;;;;;;;;;19.80;99.90;;;;;;4992728;28;20123;-64
2022/09/07 03:26:05;;;;;;;;;;;19.90;99.90;;;;;;5000127;28;20257;-63
2022/09/07 03:28:33;;;;;;;;;;;19.90;99.90;;;;;;5000778;28;20197;-64
2022/09/07 03:31:01;;;;;;;;;;;19.70;99.90;;;;;;4998863;28;20660;-63
2022/09/07 03:33:29;;;;;;;;;;;19.70;99.90;;;;;;4997793;28;20748;-63
2022/09/07 03:36:00;;;;;;;;;;;19.60;99.90;;;;;;5003945;28;20199;-64
2022/09/07 03:38:29;;;;;;;;;;;19.30;99.90;;;;;;4998291;28;20523;-63
2022/09/07 03:40:57;;;;;;;;;;;18.90;99.90;;;;;;4994411;28;20201;-63
2022/09/07 03:43:25;;;;;;;;;;;18.90;99.90;;;;;;4998069;28;20607;-63
2022/09/07 03:45:56;;;;;;;;;;;19.10;99.90;;;;;;4993029;28;20728;-63
2022/09/07 03:48:24;;;;;;;;;;;19.10;99.90;;;;;;4996040;28;20220;-63
2022/09/07 03:50:55;;;;;;;;;;;19.40;99.90;;;;;;4993367;28;20192;-63
2022/09/07 03:53:24;;;;;;;;;;;19.70;99.90;;;;;;5001090;28;20215;-64
2022/09/07 03:55:56;;;;;;;;;;;20.00;99.90;;;;;;4996988;28;20203;-63
2022/09/07 03:58:24;;;;;;;;;;;20.10;99.90;;;;;;4991550;28;20307;-63
2022/09/07 04:00:52;;;;;;;;;;;20.10;99.90;;;;;;5001544;28;25104;-63
2022/09/07 04:03:19;;;;;;;;;;;19.90;99.90;;;;;;4999619;28;20316;-63
2022/09/07 04:05:47;;;;;;;;;;;19.80;99.90;;;;;;5000948;28;20767;-63
2022/09/07 04:08:15;;;;;;;;;;;19.60;99.90;;;;;;5002808;28;20296;-63
2022/09/07 04:10:44;;;;;;;;;;;19.50;99.90;;;;;;4993121;28;20104;-64
2022/09/07 04:13:12;;;;;;;;;;;19.50;99.90;;;;;;4999417;28;21431;-63
2022/09/07 04:15:39;;;;;;;;;;;19.60;99.90;;;;;;5011818;28;20214;-63
2022/09/07 04:18:07;;;;;;;;;;;19.70;99.90;;;;;;4998500;28;20722;-64
2022/09/07 04:20:35;;;;;;;;;;;19.70;99.90;;;;;;4995757;28;20205;-63
2022/09/07 04:23:03;;;;;;;;;;;19.80;99.90;;;;;;5004748;28;20209;-63
2022/09/07 04:25:30;;;;;;;;;;;19.60;99.90;;;;;;4997683;28;20232;-65
2022/09/07 04:27:59;;;;;;;;;;;19.50;99.90;;;;;;5008362;28;20197;-63
2022/09/07 04:30:27;;;;;;;;;;;19.60;99.90;;;;;;5004893;28;20331;-64
2022/09/07 04:32:55;;;;;;;;;;;19.70;99.90;;;;;;5000451;28;20215;-63
2022/09/07 04:35:23;;;;;;;;;;;19.70;99.90;;;;;;5006390;28;20734;-65
2022/09/07 04:37:50;;;;;;;;;;;19.70;99.90;;;;;;5003481;28;20124;-64
2022/09/07 04:40:18;;;;;;;;;;;19.90;99.90;;;;;;5002963;28;20272;-64
2022/09/07 04:42:46;;;;;;;;;;;19.90;99.90;;;;;;5001990;28;20084;-65
2022/09/07 04:45:15;;;;;;;;;;;19.90;99.90;;;;;;5004288;28;20272;-64
2022/09/07 04:47:46;;;;;;;;;;;20.00;99.90;;;;;;5007609;28;20781;-64
2022/09/07 04:50:14;;;;;;;;;;;20.20;99.90;;;;;;4999150;28;20373;-63
2022/09/07 04:52:41;;;;;;;;;;;20.10;99.90;;;;;;4998589;28;20242;-64
2022/09/07 04:55:10;;;;;;;;;;;20.10;99.90;;;;;;5000715;28;20214;-65
2022/09/07 04:57:38;;;;;;;;;;;20.00;99.90;;;;;;5003301;28;20093;-63
2022/09/07 05:00:08;;;;;;;;;;;20.20;99.90;;;;;;4997371;28;21773;-64
2022/09/07 05:02:37;;;;;;;;;;;20.10;99.90;;;;;;4998379;28;20199;-63
2022/09/07 05:05:05;;;;;;;;;;;20.30;99.90;;;;;;5004778;28;20199;-63
2022/09/07 05:07:33;;;;;;;;;;;20.40;99.90;;;;;;5002765;28;20211;-63
2022/09/07 05:10:01;;;;;;;;;;;20.30;99.90;;;;;;5002841;28;22161;-65
2022/09/07 05:12:29;;;;;;;;;;;20.40;99.90;;;;;;5007269;28;20115;-65
2022/09/07 05:14:57;;;;;;;;;;;20.60;99.90;;;;;;5004992;28;20237;-64
2022/09/07 05:17:24;;;;;;;;;;;20.70;99.90;;;;;;5003846;28;20265;-64
2022/09/07 05:19:53;;;;;;;;;;;20.50;99.90;;;;;;5000302;28;20196;-65
2022/09/07 05:22:23;;;;;;;;;;;20.40;99.90;;;;;;4999438;28;20214;-65
2022/09/07 05:24:51;;;;;;;;;;;20.40;99.90;;;;;;4999897;28;20210;-64
2022/09/07 05:27:19;;;;;;;;;;;20.50;99.90;;;;;;4997893;28;20215;-64
2022/09/07 05:29:47;;;;;;;;;;;20.40;99.90;;;;;;5005284;28;20256;-65
2022/09/07 05:32:32;;;;;;;;;;;20.30;99.90;;;;;;4996939;28;20203;-64
2022/09/07 05:35:01;;;;;;;;;;;20.30;99.90;;;;;;5006586;28;20273;-63
2022/09/07 05:37:29;;;;;;;;;;;20.50;99.90;;;;;;5009560;28;20206;-64
2022/09/07 05:39:57;;;;;;;;;;;20.50;99.90;;;;;;5001478;28;20201;-65
2022/09/07 05:42:25;;;;;;;;;;;20.30;99.90;;;;;;4998762;28;20290;-65
2022/09/07 05:44:53;;;;;;;;;;;20.30;99.90;;;;;;4997991;28;20274;-64
2022/09/07 05:47:21;;;;;;;;;;;20.30;99.90;;;;;;4996625;28;20272;-65
2022/09/07 05:49:48;;;;;;;;;;;20.30;99.90;;;;;;4997904;28;20160;-66
2022/09/07 05:52:21;;;;;;;;;;;20.40;99.90;;;;;;5004213;28;20230;-64
2022/09/07 05:54:49;;;;;;;;;;;20.50;99.90;;;;;;5002382;28;20210;-65
2022/09/07 05:57:17;;;;;;;;;;;20.50;99.90;;;;;;4999369;28;20218;-64
2022/09/07 05:59:45;;;;;;;;;;;20.50;99.90;;;;;;4999714;28;20848;-64
2022/09/07 06:02:14;;;;;;;;;;;20.60;99.90;;;;;;4979275;28;20207;-66
2022/09/07 06:04:42;;;;;;;;;;;20.70;99.90;;;;;;5001156;28;20205;-64
2022/09/07 06:07:10;;;;;;;;;;;20.60;99.90;;;;;;5000579;28;21017;-65
2022/09/07 06:09:50;;;;;;;;;;;20.50;99.90;;;;;;5007098;28;20309;-67
2022/09/07 06:12:38;;;;;;;;;;;20.40;99.90;;;;;;4981560;28;20191;-65
2022/09/07 06:15:06;;;;;;;;;;;20.30;99.90;;;;;;5002377;28;20193;-64
2022/09/07 06:17:34;;;;;;;;;;;20.20;99.90;;;;;;5001702;28;20238;-65
2022/09/07 06:20:02;;;;;;;;;;;20.10;99.90;;;;;;5003018;28;20803;-64
2022/09/07 06:22:30;;;;;;;;;;;20.10;99.90;;;;;;4994825;28;20195;-65
2022/09/07 06:24:59;;;;;;;;;;;19.90;99.90;;;;;;5007425;28;20250;-65
2022/09/07 06:27:27;;;;;;;;;;;19.90;99.90;;;;;;5005663;28;20332;-65
2022/09/07 06:29:55;;;;;;;;;;;19.90;99.90;;;;;;5028910;28;20205;-65
2022/09/07 06:32:23;;;;;;;;;;;20.00;99.90;;;;;;5024148;28;20211;-65
2022/09/07 06:35:07;;;;;;;;;;;20.00;99.90;;;;;;5010761;28;20576;-65
2022/09/07 06:37:35;;;;;;;;;;;20.00;99.90;;;;;;5006099;28;20785;-65
2022/09/07 06:40:04;;;;;;;;;;;19.90;99.90;;;;;;4998996;28;20198;-64
2022/09/07 06:42:33;;;;;;;;;;;19.90;99.90;;;;;;5018100;28;20212;-65
2022/09/07 06:45:01;;;;;;;;;;;20.00;99.90;;;;;;5002461;28;20204;-65
2022/09/07 06:47:29;;;;;;;;;;;20.00;99.90;;;;;;5021507;28;20700;-65
2022/09/07 06:49:57;;;;;;;;;;;20.10;99.90;;;;;;4996847;28;20334;-65
2022/09/07 06:52:26;;;;;;;;;;;20.10;99.90;;;;;;5012124;28;20208;-65
2022/09/07 06:54:55;;;;;;;;;;;20.20;99.90;;;;;;4997119;28;20206;-65
2022/09/07 06:57:27;;;;;;;;;;;20.20;99.90;;;;;;5012694;28;20497;-65
2022/09/07 06:59:55;;;;;;;;;;;20.20;99.90;;;;;;5014501;28;20701;-65
2022/09/07 07:02:23;;;;;;;;;;;20.30;99.90;;;;;;4992675;28;20203;-65
2022/09/07 07:04:51;;;;;;;;;;;20.30;99.90;;;;;;5009973;28;20225;-64
2022/09/07 07:07:19;;;;;;;;;;;20.30;99.90;;;;;;5028336;28;20220;-65
2022/09/07 07:09:49;;;;;;;;;;;20.30;99.90;;;;;;5006028;28;20200;-65
2022/09/07 07:12:17;;;;;;;;;;;20.40;99.90;;;;;;5007492;28;20213;-65
2022/09/07 07:14:45;;;;;;;;;;;20.40;99.90;;;;;;5006392;28;20191;-65
2022/09/07 07:17:13;;;;;;;;;;;20.40;99.90;;;;;;5006020;28;20105;-65
2022/09/07 07:19:41;;;;;;;;;;;20.40;99.90;;;;;;5001530;28;20218;-65
2022/09/07 07:22:09;;;;;;;;;;;20.60;99.90;;;;;;4997945;28;20308;-65
2022/09/07 07:24:57;;;;;;;;;;;20.70;99.90;;;;;;5012983;28;20099;-65
2022/09/07 07:27:25;;;;;;;;;;;20.70;99.90;;;;;;5007433;28;20756;-65
2022/09/07 07:29:54;;;;;;;;;;;20.80;99.90;;;;;;5001324;28;20228;-65
2022/09/07 07:32:22;;;;;;;;;;;20.90;99.90;;;;;;4999247;28;20653;-65
2022/09/07 07:34:50;;;;;;;;;;;21.00;99.90;;;;;;5006074;28;20196;-65
2022/09/07 07:37:18;;;;;;;;;;;21.20;99.90;;;;;;4999545;28;20196;-65
2022/09/07 07:39:46;;;;;;;;;;;21.20;99.90;;;;;;5005806;28;20195;-65
2022/09/07 07:42:34;;;;;;;;;;;21.40;99.90;;;;;;4993078;28;20230;-64
2022/09/07 07:45:04;;;;;;;;;;;21.50;99.90;;;;;;4999170;28;20204;-65
2022/09/07 07:47:51;;;;;;;;;;;21.50;99.90;;;;;;4985473;28;20226;-65
2022/09/07 07:50:19;;;;;;;;;;;21.40;99.90;;;;;;5006572;28;20204;-65
2022/09/07 07:53:04;;;;;;;;;;;21.30;99.90;;;;;;4998245;28;20194;-65
2022/09/07 07:55:52;;;;;;;;;;;21.30;99.90;;;;;;5001936;28;20202;-65
2022/09/07 07:58:20;;;;;;;;;;;21.20;99.90;;;;;;5003652;28;20271;-65
2022/09/07 08:00:49;;;;;;;;;;;21.40;99.90;;;;;;5014906;28;20218;-65
2022/09/07 08:03:23;;;;;;;;;;;21.50;99.90;;;;;;4999669;28;20320;-65
2022/09/07 08:05:52;;;;;;;;;;;21.60;99.90;;;;;;5007525;28;20209;-65
2022/09/07 08:08:20;;;;;;;;;;;21.80;99.90;;;;;;5004240;28;20206;-65
2022/09/07 08:10:48;;;;;;;;;;;22.10;99.90;;;;;;4988600;28;20225;-65
2022/09/07 08:13:16;;;;;;;;;;;22.20;99.90;;;;;;4976817;28;20723;-65
2022/09/07 08:15:45;;;;;;;;;;;22.40;99.90;;;;;;4986725;28;20283;-66
2022/09/07 08:18:15;;;;;;;;;;;22.50;99.90;;;;;;4982579;28;20726;-65
2022/09/07 08:20:43;;;;;;;;;;;22.50;99.90;;;;;;4976385;28;20228;-65
2022/09/07 08:23:11;;;;;;;;;;;22.50;99.90;;;;;;4989948;28;20288;-66
2022/09/07 08:25:48;;;;;;;;;;;22.40;99.90;;;;;;4993782;28;25076;-65
2022/09/07 08:28:16;;;;;;;;;;;22.40;99.90;;;;;;4990901;28;20629;-65
2022/09/07 08:30:44;;;;;;;;;;;22.60;99.90;;;;;;4981181;28;20234;-65
2022/09/07 08:33:11;;;;;;;;;;;22.60;99.90;;;;;;4987111;28;20294;-66
2022/09/07 08:35:41;;;;;;;;;;;22.60;99.90;;;;;;4987310;28;20153;-65
2022/09/07 08:38:09;;;;;;;;;;;22.70;99.90;;;;;;4983064;28;20206;-65
2022/09/07 08:40:37;;;;;;;;;;;22.80;99.90;;;;;;4970582;28;20228;-64
2022/09/07 08:43:10;;;;;;;;;;;23.00;99.90;;;;;;4977948;28;20670;-65
2022/09/07 08:45:39;;;;;;;;;;;23.20;99.90;;;;;;4974186;28;20122;-65
2022/09/07 08:48:11;;;;;;;;;;;23.50;99.90;;;;;;4980537;28;20209;-65
2022/09/07 08:50:45;;;;;;;;;;;23.80;99.90;;;;;;4955708;29;20131;-65
2022/09/07 08:53:14;;;;;;;;;;;24.00;99.90;;;;;;4978183;28;20792;-65
2022/09/07 08:55:45;;;;;;;;;;;24.00;99.90;;;;;;4994697;28;20200;-64
2022/09/07 08:58:15;;;;;;;;;;;24.10;99.90;;;;;;4982463;28;20196;-65
2022/09/07 09:01:06;;;;;;;;;;;24.30;99.90;;;;;;4991886;28;20258;-65
2022/09/07 09:03:54;;;;;;;;;;;24.40;99.90;;;;;;4970524;28;20268;-65
2022/09/07 09:06:47;;;;;;;;;;;24.60;99.90;;;;;;4976402;28;20199;-65
2022/09/07 09:09:20;;;;;;;;;;;24.60;99.90;;;;;;5027512;23;20293;-65
2022/09/07 09:11:52;;;;;;;;;;;24.70;99.90;;;;;;5051732;28;20198;-64
2022/09/07 09:14:26;;;;;;;;;;;24.80;99.90;;;;;;5053356;28;20209;-64
2022/09/07 09:16:57;;;;;;;;;;;25.00;99.90;;;;;;5051145;28;20226;-64
2022/09/07 09:19:43;;;;;;;;;;;25.10;99.90;;;;;;5053296;28;20249;-64
2022/09/07 09:22:13;;;;;;;;;;;25.30;99.90;;;;;;5050443;28;20285;-65
2022/09/07 09:24:43;;;;;;;;;;;25.50;99.90;;;;;;5053239;28;20194;-64
2022/09/07 09:27:11;;;;;;;;;;;25.60;99.90;;;;;;5052035;28;20252;-64
2022/09/07 09:29:39;;;;;;;;;;;25.70;99.90;;;;;;5052865;28;20226;-65
2022/09/07 09:32:40;;;;;;;;;;;25.80;99.90;;;;;;5050151;28;20194;-65
2022/09/07 09:35:16;;;;;;;;;;;25.80;99.90;;;;;;4968382;28;20274;-65
2022/09/07 09:37:45;;;;;;;;;;;25.70;99.90;;;;;;4956960;28;20213;-65
2022/09/07 09:40:21;;;;;;;;;;;25.80;99.90;;;;;;4993613;28;20714;-65
2022/09/07 09:42:58;;;;;;;;;;;25.90;99.90;;;;;;5052995;28;20248;-63
2022/09/07 09:45:27;;;;;;;;;;;26.00;99.90;;;;;;5051986;28;20630;-64
2022/09/07 09:47:56;;;;;;;;;;;26.00;99.90;;;;;;5050113;28;20574;-65
2022/09/07 09:50:26;;;;;;;;;;;26.30;99.90;;;;;;5052548;28;20252;-65
2022/09/07 09:53:23;;;;;;;;;;;26.50;99.90;;;;;;5051705;28;20565;-66
2022/09/07 09:55:52;;;;;;;;;;;26.60;99.90;;;;;;5052079;28;20197;-66
2022/09/07 09:58:27;;;;;;;;;;;26.40;99.90;;;;;;5049477;28;20202;-66
2022/09/07 10:01:21;;;;;;;;;;;26.30;99.90;;;;;;5050518;28;20256;-65
2022/09/07 10:03:51;;;;;;;;;;;26.40;99.90;;;;;;5052617;28;20636;-66
2022/09/07 10:06:19;;;;;;;;;;;26.90;99.90;;;;;;5049979;28;20198;-66
2022/09/07 10:08:54;;;;;;;;;;;26.80;99.90;;;;;;5045387;28;20198;-66
2022/09/07 10:11:37;;;;;;;;;;;27.10;99.90;;;;;;5051259;28;20198;-66
2022/09/07 10:14:27;;;;;;;;;;;27.30;99.90;;;;;;5049961;28;20234;-66
2022/09/07 10:16:55;;;;;;;;;;;27.40;99.90;;;;;;5048009;28;20228;-66
2022/09/07 10:19:25;;;;;;;;;;;27.20;99.90;;;;;;5052087;28;20187;-66
2022/09/07 10:21:55;;;;;;;;;;;27.20;99.90;;;;;;5040654;28;20225;-66
2022/09/07 10:24:25;;;;;;;;;;;27.30;99.90;;;;;;5032328;28;20209;-66
2022/09/07 10:26:53;;;;;;;;;;;27.40;99.90;;;;;;5037611;28;20198;-66
2022/09/07 10:29:25;;;;;;;;;;;27.40;99.90;;;;;;5051867;28;20198;-65
2022/09/07 10:32:00;;;;;;;;;;;27.20;99.90;;;;;;5041791;28;20203;-65
2022/09/07 10:34:31;;;;;;;;;;;27.00;99.90;;;;;;5032432;28;20198;-66
2022/09/07 10:37:02;;;;;;;;;;;27.10;99.90;;;;;;5040949;28;20702;-66
2022/09/07 10:39:35;;;;;;;;;;;27.40;99.90;;;;;;5051997;28;20190;-66
2022/09/07 10:42:12;;;;;;;;;;;27.60;99.90;;;;;;5047936;28;20248;-66
2022/09/07 10:44:49;;;;;;;;;;;27.90;99.90;;;;;;5045957;28;20201;-66
2022/09/07 10:47:24;;;;;;;;;;;28.20;99.90;;;;;;5049114;28;20210;-66
2022/09/07 10:49:55;;;;;;;;;;;28.60;99.90;;;;;;5051485;28;20190;-67
2022/09/07 10:52:46;;;;;;;;;;;28.70;99.90;;;;;;5036842;28;20309;-66
2022/09/07 10:55:16;;;;;;;;;;;28.70;99.90;;;;;;5036732;28;20198;-66
2022/09/07 10:57:52;;;;;;;;;;;28.90;99.90;;;;;;5052000;28;20193;-66
2022/09/07 11:00:20;;;;;;;;;;;28.50;99.90;;;;;;5050182;28;20213;-65
2022/09/07 11:03:06;;;;;;;;;;;28.60;99.90;;;;;;5052111;28;20209;-66
2022/09/07 11:06:02;;;;;;;;;;;28.90;99.90;;;;;;5045976;28;20274;-66
2022/09/07 11:08:36;;;;;;;;;;;28.80;99.90;;;;;;5050383;28;20244;-65
2022/09/07 11:11:27;;;;;;;;;;;28.70;99.90;;;;;;5031485;28;20628;-66
2022/09/07 11:14:18;;;;;;;;;;;28.70;99.90;;;;;;5022139;28;20195;-66
2022/09/07 11:16:49;;;;;;;;;;;29.10;99.90;;;;;;5025102;28;20269;-66
2022/09/07 11:19:20;;;;;;;;;;;29.10;99.90;;;;;;5031546;28;20211;-66
2022/09/07 11:22:10;;;;;;;;;;;29.40;99.90;;;;;;5018941;28;20302;-67
2022/09/07 11:24:41;;;;;;;;;;;29.40;99.90;;;;;;5031558;28;20194;-66
2022/09/07 11:27:12;;;;;;;;;;;29.60;99.90;;;;;;5031416;28;20195;-67
2022/09/07 11:29:43;;;;;;;;;;;29.60;99.90;;;;;;5023328;28;20191;-67
2022/09/07 11:32:12;;;;;;;;;;;29.40;99.90;;;;;;5025306;28;20194;-66
2022/09/07 11:34:41;;;;;;;;;;;29.50;99.90;;;;;;5031495;28;20207;-66
2022/09/07 11:37:16;;;;;;;;;;;29.10;99.90;;;;;;5016954;28;20199;-67
2022/09/07 11:39:44;;;;;;;;;;;29.00;99.90;;;;;;5011506;28;20203;-67
2022/09/07 11:42:18;;;;;;;;;;;29.00;99.90;;;;;;5019962;28;20199;-66
2022/09/07 11:45:12;;;;;;;;;;;29.40;99.90;;;;;;5031206;28;20457;-67
2022/09/07 11:47:42;;;;;;;;;;;29.90;99.90;;;;;;5030458;28;20643;-65
2022/09/07 11:50:14;;;;;;;;;;;30.40;99.90;;;;;;5034659;28;20195;-67
2022/09/07 11:52:43;;;;;;;;;;;30.60;99.90;;;;;;5034124;28;20210;-66
2022/09/07 11:55:12;;;;;;;;;;;31.00;99.90;;;;;;5034938;28;20646;-67
2022/09/07 11:57:47;;;;;;;;;;;31.30;99.90;;;;;;5025877;28;20256;-67
2022/09/07 12:00:22;;;;;;;;;;;31.40;99.90;;;;;;5034806;28;20226;-67
2022/09/07 12:03:04;;;;;;;;;;;30.80;99.90;;;;;;5028668;28;20289;-67
2022/09/07 12:05:42;;;;;;;;;;;30.90;99.90;;;;;;5033977;28;20210;-67
2022/09/07 12:08:16;;;;;;;;;;;31.00;99.90;;;;;;5032104;28;20207;-67
2022/09/07 12:11:04;;;;;;;;;;;31.40;99.90;;;;;;5043323;28;20637;-67
2022/09/07 12:13:56;;;;;;;;;;;31.30;99.90;;;;;;5050081;28;20210;-65
2022/09/07 12:16:32;;;;;;;;;;;31.00;99.90;;;;;;5041102;28;20202;-65
2022/09/07 12:19:18;;;;;;;;;;;30.70;99.90;;;;;;5054250;28;20194;-65
2022/09/07 12:21:47;;;;;;;;;;;30.40;99.90;;;;;;5053605;28;20251;-64
2022/09/07 12:24:33;;;;;;;;;;;29.70;99.90;;;;;;5054663;28;20243;-65
2022/09/07 12:27:01;;;;;;;;;;;29.10;99.90;;;;;;5053741;28;20198;-65
2022/09/07 12:29:29;;;;;;;;;;;28.50;99.90;;;;;;5053345;28;20279;-66
2022/09/07 12:31:59;;;;;;;;;;;28.30;99.90;;;;;;5052809;28;20738;-65
2022/09/07 12:34:52;;;;;;;;;;;28.30;99.90;;;;;;5047564;28;20214;-65
2022/09/07 12:37:42;;;;;;;;;;;28.70;99.90;;;;;;5053057;28;20237;-66
2022/09/07 12:40:28;;;;;;;;;;;29.20;99.90;;;;;;5052470;28;20744;-66
2022/09/07 12:43:11;;;;;;;;;;;29.20;99.90;;;;;;5048594;28;20198;-66
2022/09/07 12:45:50;;;;;;;;;;;29.80;99.90;;;;;;5045889;28;20690;-66
2022/09/07 12:48:28;;;;;;;;;;;30.40;99.90;;;;;;5050373;28;20746;-65
2022/09/07 12:50:58;;;;;;;;;;;30.60;99.90;;;;;;5050032;28;20222;-66
2022/09/07 12:53:30;;;;;;;;;;;30.80;99.10;;;;;;5054078;28;20358;-65
2022/09/07 12:56:16;;;;;;;;;;;29.90;99.90;;;;;;5051209;28;20190;-64
2022/09/07 12:58:47;;;;;;;;;;;28.60;99.90;;;;;;5046344;28;20244;-65
2022/09/07 13:01:20;;;;;;;;;;;28.30;99.90;;;;;;5051651;28;20225;-65
2022/09/07 13:03:56;;;;;;;;;;;28.30;99.90;;;;;;5052257;28;20201;-65
2022/09/07 13:06:28;;;;;;;;;;;28.10;99.90;;;;;;5053581;28;20272;-65
2022/09/07 13:09:25;;;;;;;;;;;27.80;99.90;;;;;;5052142;28;20242;-65
2022/09/07 13:11:53;;;;;;;;;;;27.90;99.90;;;;;;5045331;28;20202;-65
2022/09/07 13:14:24;;;;;;;;;;;28.10;99.90;;;;;;5053179;28;20210;-65
2022/09/07 13:17:07;;;;;;;;;;;28.60;99.90;;;;;;5046505;28;20210;-65
2022/09/07 13:20:11;;;;;;;;;;;29.00;99.90;;;;;;5046026;28;20194;-67
2022/09/07 13:23:16;;;;;;;;;;;28.90;99.90;;;;;;5041469;28;20206;-66
2022/09/07 13:25:46;;;;;;;;;;;28.40;99.80;;;;;;5034397;28;20195;-65
2022/09/07 13:28:18;;;;;;;;;;;27.90;99.60;;;;;;5051394;28;20245;-66
2022/09/07 13:30:49;;;;;;;;;;;27.70;99.90;;;;;;5052543;28;20644;-68
2022/09/07 13:33:50;;;;;;;;;;;27.60;99.90;;;;;;5050499;28;20213;-67
2022/09/07 13:36:37;;;;;;;;;;;27.50;99.90;;;;;;5048306;28;20273;-66
2022/09/07 13:39:12;;;;;;;;;;;28.00;99.80;;;;;;5053021;28;20192;-66
2022/09/07 13:41:42;;;;;;;;;;;28.60;99.60;;;;;;5049470;28;20196;-66
2022/09/07 13:44:21;;;;;;;;;;;28.80;99.20;;;;;;5052711;28;20194;-67
2022/09/07 13:47:11;;;;;;;;;;;29.50;98.40;;;;;;5049781;28;20186;-67
2022/09/07 13:49:45;;;;;;;;;;;30.00;97.60;;;;;;5044747;28;20216;-66
2022/09/07 13:52:15;;;;;;;;;;;30.30;96.90;;;;;;5051886;28;20193;-67
2022/09/07 13:54:50;;;;;;;;;;;29.80;96.50;;;;;;5052781;28;20204;-67
2022/09/07 13:57:20;;;;;;;;;;;29.50;96.80;;;;;;5046698;28;20202;-66
2022/09/07 13:59:48;;;;;;;;;;;29.00;97.00;;;;;;5052380;28;20270;-66
2022/09/07 14:02:20;;;;;;;;;;;28.60;97.70;;;;;;5049783;28;20559;-66
2022/09/07 14:04:50;;;;;;;;;;;28.40;97.70;;;;;;5052631;28;20377;-66
2022/09/07 14:07:19;;;;;;;;;;;28.30;98.20;;;;;;5050860;28;20210;-66
2022/09/07 14:09:48;;;;;;;;;;;28.60;98.40;;;;;;5051981;28;20212;-66
2022/09/07 14:12:18;;;;;;;;;;;28.80;97.60;;;;;;5048054;28;20214;-67
2022/09/07 14:14:45;;;;;;;;;;;28.90;97.60;;;;;;5032511;28;20700;-64
2022/09/07 14:17:14;;;;;;;;;;;28.90;97.30;;;;;;5041387;28;20194;-66
2022/09/07 14:19:44;;;;;;;;;;;28.80;97.30;;;;;;5052269;28;20202;-66
2022/09/07 14:22:14;;;;;;;;;;;28.50;97.40;;;;;;5051405;28;20194;-66
2022/09/07 14:24:43;;;;;;;;;;;28.40;98.10;;;;;;5052224;28;20277;-66
2022/09/07 14:27:22;;;;;;;;;;;28.50;98.10;;;;;;5051204;28;20559;-66
2022/09/07 14:29:50;;;;;;;;;;;28.40;98.30;;;;;;5045761;28;20725;-66
2022/09/07 14:32:20;;;;;;;;;;;28.50;98.70;;;;;;5046676;28;20204;-66
2022/09/07 14:34:48;;;;;;;;;;;28.50;99.60;;;;;;5052064;28;20206;-67
2022/09/07 14:37:17;;;;;;;;;;;28.60;99.80;;;;;;5051209;28;20206;-66
2022/09/07 14:39:47;;;;;;;;;;;28.40;99.90;;;;;;5051766;28;20226;-66
2022/09/07 14:42:17;;;;;;;;;;;28.20;99.40;;;;;;5036645;28;20223;-66
2022/09/07 14:44:46;;;;;;;;;;;28.10;99.70;;;;;;5032046;28;20722;-66